createdAt,value
2023-04-18T00:00:32.076Z,17.73
2023-04-18T00:03:00.917Z,21.02
2023-04-18T00:05:30.519Z,21.38
2023-04-18T00:07:57.600Z,17.48
2023-04-18T00:10:24.542Z,16.80
2023-04-18T00:12:51.545Z,18.92
2023-04-18T00:15:18.579Z,17.65
2023-04-18T00:17:45.559Z,18.50
2023-04-18T00:20:13.017Z,18.33
2023-04-18T00:22:42.621Z,17.65
2023-04-18T00:25:11.076Z,20.67
2023-04-18T00:27:41.911Z,19.42
2023-04-18T00:30:09.426Z,21.48
2023-04-18T00:32:38.266Z,18.50
2023-04-18T00:35:05.922Z,23.33
2023-04-18T00:37:32.868Z,18.67
2023-04-18T00:39:59.868Z,15.02
2023-04-18T00:42:28.888Z,19.35
2023-04-18T00:44:56.017Z,17.30
2023-04-18T00:47:23.304Z,18.23
2023-04-18T00:49:50.542Z,16.98
2023-04-18T00:52:18.524Z,19.80
2023-04-18T00:54:46.432Z,20.08
2023-04-18T00:57:13.738Z,18.80
2023-04-18T00:59:41.314Z,19.45
2023-04-18T01:02:08.516Z,18.55
2023-04-18T01:04:35.777Z,17.90
2023-04-18T01:07:03.409Z,19.02
2023-04-18T01:09:30.665Z,15.50
2023-04-18T01:11:57.686Z,20.05
2023-04-18T01:14:24.721Z,20.33
2023-04-18T01:16:51.679Z,18.13
2023-04-18T01:19:19.467Z,16.55
2023-04-18T01:21:47.293Z,20.35
2023-04-18T01:24:16.888Z,16.70
2023-04-18T01:26:49.272Z,19.55
2023-04-18T01:29:16.450Z,19.58
2023-04-18T01:31:43.426Z,19.70
2023-04-18T01:34:10.506Z,18.17
2023-04-18T01:36:38.222Z,17.98
2023-04-18T01:39:05.420Z,17.15
2023-04-18T01:41:32.820Z,18.95
2023-04-18T01:44:00.641Z,19.40
2023-04-18T01:46:28.505Z,20.95
2023-04-18T01:48:56.347Z,21.45
2023-04-18T01:51:23.513Z,20.83
2023-04-18T01:53:51.545Z,20.25
2023-04-18T01:56:19.114Z,24.90
2023-04-18T01:58:46.708Z,16.98
2023-04-18T02:01:13.938Z,21.25
2023-04-18T02:03:41.071Z,22.77
2023-04-18T02:06:08.423Z,19.55
2023-04-18T02:08:35.945Z,19.92
2023-04-18T02:11:05.619Z,22.52
2023-04-18T02:13:32.962Z,18.08
2023-04-18T02:16:00.077Z,22.67
2023-04-18T02:18:27.337Z,16.90
2023-04-18T02:20:54.510Z,17.48
2023-04-18T02:23:22.649Z,19.15
2023-04-18T02:25:50.819Z,20.80
2023-04-18T02:28:17.938Z,21.77
2023-04-18T02:30:45.125Z,16.42
2023-04-18T02:33:12.079Z,18.40
2023-04-18T02:35:40.727Z,19.13
2023-04-18T02:38:09.250Z,16.60
2023-04-18T02:40:36.378Z,17.35
2023-04-18T02:43:03.379Z,17.10
2023-04-18T02:45:30.457Z,18.08
2023-04-18T02:47:59.991Z,17.40
2023-04-18T02:50:27.217Z,17.20
2023-04-18T02:52:56.186Z,18.88
2023-04-18T02:55:28.397Z,16.25
2023-04-18T02:57:58.836Z,19.05
2023-04-18T03:00:31.740Z,16.67
2023-04-18T03:03:18.679Z,18.55
2023-04-18T03:05:57.205Z,18.10
2023-04-18T03:08:24.380Z,20.95
2023-04-18T03:10:51.374Z,25.63
2023-04-18T03:13:21.927Z,16.50
2023-04-18T03:15:49.206Z,22.85
2023-04-18T03:18:16.805Z,19.90
2023-04-18T03:20:43.881Z,17.48
2023-04-18T03:23:10.875Z,20.05
2023-04-18T03:25:37.953Z,25.13
2023-04-18T03:28:05.624Z,17.67
2023-04-18T03:30:34.107Z,20.77
2023-04-18T03:33:02.943Z,18.05
2023-04-18T03:35:31.021Z,19.45
2023-04-18T03:37:57.972Z,17.17
2023-04-18T03:40:28.719Z,18.83
2023-04-18T03:43:00.797Z,15.68
2023-04-18T03:45:28.114Z,17.30
2023-04-18T03:47:56.099Z,16.08
2023-04-18T03:50:25.735Z,17.13
2023-04-18T03:52:54.895Z,19.92
2023-04-18T03:55:22.128Z,18.20
2023-04-18T03:57:49.111Z,20.70
2023-04-18T04:00:25.308Z,16.88
2023-04-18T04:02:59.567Z,17.85
2023-04-18T04:05:26.833Z,14.52
2023-04-18T04:07:54.089Z,19.10
2023-04-18T04:10:21.145Z,17.42
2023-04-18T04:12:49.465Z,12.75
2023-04-18T04:15:16.845Z,15.80
2023-04-18T04:17:52.357Z,19.35
2023-04-18T04:20:24.697Z,18.42
2023-04-18T04:22:59.982Z,16.05
2023-04-18T04:25:28.818Z,17.15
2023-04-18T04:28:01.422Z,17.02
2023-04-18T04:30:28.959Z,19.73
2023-04-18T04:32:56.346Z,16.77
2023-04-18T04:35:23.349Z,17.20
2023-04-18T04:37:51.768Z,18.60
2023-04-18T04:40:30.678Z,21.38
2023-04-18T04:43:06.443Z,14.95
2023-04-18T04:45:38.956Z,16.08
2023-04-18T04:48:06.553Z,14.18
2023-04-18T04:50:38.787Z,21.40
2023-04-18T04:53:06.823Z,17.98
2023-04-18T04:55:34.348Z,14.77
2023-04-18T04:58:03.783Z,14.95
2023-04-18T05:00:52.683Z,18.23
2023-04-18T05:03:21.045Z,18.38
2023-04-18T05:05:48.483Z,16.70
2023-04-18T05:08:15.724Z,18.35
2023-04-18T05:10:43.323Z,19.48
2023-04-18T05:13:10.475Z,17.00
2023-04-18T05:15:37.664Z,19.35
2023-04-18T05:18:05.151Z,14.52
2023-04-18T05:20:32.454Z,16.05
2023-04-18T05:22:59.363Z,16.92
2023-04-18T05:25:26.913Z,18.92
2023-04-18T05:27:53.817Z,17.27
2023-04-18T05:30:21.234Z,16.23
2023-04-18T05:32:48.177Z,14.05
2023-04-18T05:35:15.301Z,18.45
2023-04-18T05:37:42.458Z,17.60
2023-04-18T05:40:10.347Z,20.95
2023-04-18T05:42:37.316Z,14.75
2023-04-18T05:45:04.758Z,15.82
2023-04-18T05:47:33.748Z,18.73
2023-04-18T05:50:01.235Z,16.40
2023-04-18T05:52:28.200Z,18.30
2023-04-18T05:54:55.136Z,15.68
2023-04-18T05:57:22.058Z,16.55
2023-04-18T05:59:50.057Z,14.73
2023-04-18T06:02:18.062Z,15.40
2023-04-18T06:04:46.338Z,13.38
2023-04-18T06:07:15.245Z,17.27
2023-04-18T06:09:42.993Z,12.52
2023-04-18T06:12:10.325Z,13.60
2023-04-18T06:14:37.230Z,17.45
2023-04-18T06:17:04.181Z,14.80
2023-04-18T06:19:31.182Z,14.20
2023-04-18T06:21:58.228Z,13.65
2023-04-18T06:24:25.314Z,16.55
2023-04-18T06:26:52.582Z,13.65
2023-04-18T06:29:19.483Z,12.77
2023-04-18T06:31:48.326Z,12.00
2023-04-18T06:34:15.618Z,10.88
2023-04-18T06:36:43.229Z,13.50
2023-04-18T06:39:10.358Z,12.02
2023-04-18T06:41:37.364Z,17.63
2023-04-18T06:44:04.750Z,13.82
2023-04-18T06:46:32.813Z,15.55
2023-04-18T06:48:59.948Z,11.88
2023-04-18T06:51:27.471Z,10.80
2023-04-18T06:53:54.484Z,13.43
2023-04-18T06:56:21.907Z,13.25
2023-04-18T06:58:52.801Z,13.77
2023-04-18T07:01:19.961Z,14.50
2023-04-18T07:03:47.153Z,12.02
2023-04-18T07:06:14.265Z,13.77
2023-04-18T07:08:41.914Z,11.57
2023-04-18T07:11:09.193Z,15.52
2023-04-18T07:13:36.116Z,12.05
2023-04-18T07:16:03.555Z,13.20
2023-04-18T07:18:37.961Z,11.27
2023-04-18T07:21:09.367Z,13.55
2023-04-18T07:23:36.558Z,11.52
2023-04-18T07:26:05.575Z,11.57
2023-04-18T07:28:33.349Z,12.38
2023-04-18T07:31:01.352Z,11.13
2023-04-18T07:33:31.774Z,13.43
2023-04-18T07:35:59.195Z,15.88
2023-04-18T07:38:27.092Z,9.88
2023-04-18T07:40:58.737Z,15.07
2023-04-18T07:43:26.200Z,13.52
2023-04-18T07:45:53.795Z,13.38
2023-04-18T07:48:25.432Z,11.38
2023-04-18T07:50:52.824Z,15.77
2023-04-18T07:53:20.254Z,11.52
2023-04-18T07:55:47.214Z,15.50
2023-04-18T07:58:14.616Z,15.20
2023-04-18T08:00:45.347Z,12.50
2023-04-18T08:03:13.188Z,11.77
2023-04-18T08:05:41.840Z,10.68
2023-04-18T08:08:10.852Z,17.90
2023-04-18T08:10:38.428Z,12.73
2023-04-18T08:13:06.297Z,9.20
2023-04-18T08:15:33.575Z,15.00
2023-04-18T08:18:01.679Z,13.05
2023-04-18T08:20:28.841Z,14.05
2023-04-18T08:25:26.142Z,17.27
2023-04-18T08:27:53.164Z,14.65
2023-04-18T08:30:20.326Z,16.40
2023-04-18T08:32:47.412Z,11.93
2023-04-18T08:35:14.396Z,13.95
2023-04-18T08:37:41.599Z,16.20
2023-04-18T08:40:09.071Z,16.60
2023-04-18T08:42:39.369Z,15.43
2023-04-18T08:45:07.084Z,14.68
2023-04-18T08:47:35.675Z,13.68
2023-04-18T08:50:03.230Z,12.75
2023-04-18T08:52:31.991Z,13.63
2023-04-18T08:54:58.918Z,17.30
2023-04-18T08:57:30.105Z,18.25
2023-04-18T09:00:00.745Z,14.63
2023-04-18T09:02:45.146Z,14.75
2023-04-18T09:05:19.518Z,16.23
2023-04-18T09:07:51.799Z,16.00
2023-04-18T09:10:33.579Z,12.50
2023-04-18T09:13:03.264Z,12.75
2023-04-18T09:15:31.447Z,13.70
2023-04-18T09:18:02.245Z,12.73
2023-04-18T09:20:38.375Z,12.48
2023-04-18T09:23:11.029Z,15.82
2023-04-18T09:25:46.472Z,12.38
2023-04-18T09:28:29.747Z,16.15
2023-04-18T09:30:58.798Z,13.50
2023-04-18T09:33:28.510Z,13.45
2023-04-18T09:35:57.248Z,11.35
2023-04-18T09:38:40.948Z,12.38
2023-04-18T09:41:10.089Z,16.63
2023-04-18T09:43:37.057Z,12.27
2023-04-18T09:46:08.373Z,12.05
2023-04-18T09:48:36.043Z,12.02
2023-04-18T09:51:10.787Z,13.68
2023-04-18T09:53:40.626Z,16.52
2023-04-18T09:56:12.838Z,14.75
2023-04-18T09:58:42.374Z,14.90
2023-04-18T10:01:09.501Z,14.50
2023-04-18T10:03:47.413Z,14.65
2023-04-18T10:06:16.901Z,14.07
2023-04-18T10:08:45.734Z,14.65
2023-04-18T10:11:12.890Z,11.27
2023-04-18T10:13:43.174Z,14.60
2023-04-18T10:16:11.568Z,14.00
2023-04-18T10:18:38.732Z,15.02
2023-04-18T10:21:06.114Z,16.23
2023-04-18T10:23:36.145Z,12.27
2023-04-18T10:26:04.815Z,15.45
2023-04-18T10:28:53.453Z,17.83
2023-04-18T10:31:25.725Z,16.15
2023-04-18T10:36:28.432Z,15.43
2023-04-18T10:39:20.001Z,17.63
2023-04-18T10:41:51.084Z,14.50
2023-04-18T10:44:19.930Z,12.52
2023-04-18T10:46:53.273Z,12.93
2023-04-18T10:49:27.291Z,12.85
2023-04-18T10:51:59.570Z,13.23
2023-04-18T10:54:32.175Z,12.43
2023-04-18T10:57:01.882Z,17.73
2023-04-18T10:59:30.724Z,16.23
2023-04-18T11:02:05.333Z,12.10
2023-04-18T11:04:32.656Z,12.50
2023-04-18T11:06:59.819Z,13.63
2023-04-18T11:09:26.764Z,12.80
2023-04-18T11:12:09.172Z,13.45
2023-04-18T11:14:43.760Z,19.55
2023-04-18T11:17:24.530Z,12.43
2023-04-18T11:20:00.365Z,12.50
2023-04-18T11:22:27.674Z,10.95
2023-04-18T11:25:01.772Z,11.35
2023-04-18T11:27:30.059Z,13.88
2023-04-18T11:29:57.578Z,10.15
2023-04-18T11:32:24.774Z,12.00
2023-04-18T11:34:55.642Z,12.70
2023-04-18T11:37:22.936Z,11.25
2023-04-18T11:39:53.921Z,15.50
2023-04-18T11:42:26.194Z,12.20
2023-04-18T11:44:53.222Z,11.23
2023-04-18T11:47:31.679Z,10.60
2023-04-18T11:50:07.713Z,11.63
2023-04-18T11:52:36.418Z,11.52
2023-04-18T11:55:21.697Z,13.63
2023-04-18T11:57:56.724Z,11.93
2023-04-18T12:00:35.352Z,10.30
2023-04-18T12:03:04.913Z,10.93
2023-04-18T12:05:37.117Z,9.98
2023-04-18T12:08:18.618Z,13.00
2023-04-18T12:10:46.973Z,8.70
2023-04-18T12:13:13.974Z,9.10
2023-04-18T12:15:43.503Z,9.48
2023-04-18T12:18:12.887Z,9.07
2023-04-18T12:20:46.052Z,11.27
2023-04-18T12:23:32.454Z,12.43
2023-04-18T12:26:07.531Z,11.50
2023-04-18T12:28:35.569Z,11.82
2023-04-18T12:31:02.954Z,8.30
2023-04-18T12:33:30.906Z,9.30
2023-04-18T12:36:00.881Z,7.75
2023-04-18T12:38:28.276Z,9.10
2023-04-18T12:40:55.318Z,7.97
2023-04-18T12:43:22.416Z,8.75
2023-04-18T12:45:50.109Z,7.93
2023-04-18T12:48:17.093Z,7.13
2023-04-18T12:50:44.231Z,8.25
2023-04-18T12:53:11.418Z,10.95
2023-04-18T12:55:38.458Z,5.85
2023-04-18T12:58:11.656Z,9.68
2023-04-18T13:00:38.629Z,8.00
2023-04-18T13:03:05.846Z,7.57
2023-04-18T13:05:34.168Z,7.50
2023-04-18T13:10:32.244Z,6.75
2023-04-18T13:12:59.241Z,8.43
2023-04-18T13:15:27.635Z,5.63
2023-04-18T13:17:56.385Z,7.32
2023-04-18T13:20:23.663Z,7.22
2023-04-18T13:22:50.600Z,7.00
2023-04-18T13:25:17.645Z,8.07
2023-04-18T13:27:45.909Z,7.57
2023-04-18T13:30:13.431Z,8.15
2023-04-18T13:32:41.292Z,5.35
2023-04-18T13:35:11.228Z,9.68
2023-04-18T13:37:38.981Z,10.02
2023-04-18T13:40:07.035Z,6.15
2023-04-18T13:42:35.598Z,7.90
2023-04-18T13:45:03.252Z,5.53
2023-04-18T13:47:30.557Z,7.88
2023-04-18T13:49:57.969Z,7.47
2023-04-18T13:52:25.720Z,6.70
2023-04-18T13:54:52.989Z,8.57
2023-04-18T13:57:20.205Z,12.18
2023-04-18T13:59:47.319Z,8.48
2023-04-18T14:02:14.462Z,8.85
2023-04-18T14:04:41.964Z,12.20
2023-04-18T14:10:12.095Z,11.88
2023-04-18T14:12:39.942Z,9.07
2023-04-18T14:15:07.661Z,10.68
2023-04-18T14:17:34.978Z,12.70
2023-04-18T14:20:02.598Z,10.00
2023-04-18T14:22:29.697Z,12.18
2023-04-18T14:24:56.775Z,10.60
2023-04-18T14:27:26.115Z,11.02
2023-04-18T14:29:53.418Z,9.60
2023-04-18T14:32:20.433Z,8.43
2023-04-18T14:34:47.442Z,10.23
2023-04-18T14:37:15.726Z,8.75
2023-04-18T14:39:43.407Z,10.30
2023-04-18T14:42:10.495Z,13.75
2023-04-18T14:44:37.510Z,11.25
2023-04-18T14:47:04.560Z,10.65
2023-04-18T14:49:31.603Z,9.43
2023-04-18T14:51:58.721Z,12.32
2023-04-18T14:54:25.774Z,11.30
2023-04-18T14:56:56.490Z,10.45
2023-04-18T14:59:27.868Z,10.07
2023-04-18T15:01:55.109Z,9.60
2023-04-18T15:04:22.491Z,8.25
2023-04-18T15:06:49.519Z,13.80
2023-04-18T15:09:16.518Z,12.32
2023-04-18T15:11:43.951Z,9.23
2023-04-18T15:14:11.342Z,9.43
2023-04-18T15:16:40.825Z,10.40
2023-04-18T15:19:08.151Z,9.93
2023-04-18T15:21:35.066Z,11.23
2023-04-18T15:24:02.046Z,12.23
2023-04-18T15:26:30.467Z,10.73
2023-04-18T15:29:02.576Z,10.23
2023-04-18T15:31:30.879Z,11.48
2023-04-18T15:33:58.135Z,6.43
2023-04-18T15:36:25.225Z,9.93
2023-04-18T15:38:52.177Z,10.35
2023-04-18T15:41:19.086Z,8.73
2023-04-18T15:43:46.072Z,14.48
2023-04-18T15:46:13.057Z,13.70
2023-04-18T15:48:40.091Z,10.00
2023-04-18T15:51:07.057Z,10.90
2023-04-18T15:53:34.109Z,10.68
2023-04-18T15:56:01.856Z,11.32
2023-04-18T15:58:30.272Z,13.60
2023-04-18T16:00:57.701Z,10.38
2023-04-18T16:03:25.150Z,12.77
2023-04-18T16:05:52.272Z,11.35
2023-04-18T16:08:19.385Z,9.20
2023-04-18T16:10:46.350Z,8.30
2023-04-18T16:13:13.924Z,11.90
2023-04-18T16:15:41.967Z,11.40
2023-04-18T16:18:09.151Z,12.10
2023-04-18T16:20:36.547Z,11.65
2023-04-18T16:23:03.614Z,12.63
2023-04-18T16:25:30.636Z,11.05
2023-04-18T16:27:57.743Z,14.82
2023-04-18T16:30:24.653Z,11.18
2023-04-18T16:32:52.351Z,11.32
2023-04-18T16:35:19.724Z,10.48
2023-04-18T16:37:46.685Z,11.05
2023-04-18T16:40:14.035Z,12.10
2023-04-18T16:42:41.184Z,13.23
2023-04-18T16:45:08.488Z,10.43
2023-04-18T16:47:36.293Z,8.32
2023-04-18T16:50:03.803Z,14.88
2023-04-18T16:52:31.352Z,12.40
2023-04-18T16:54:58.343Z,11.32
2023-04-18T16:57:25.293Z,10.38
2023-04-18T16:59:52.320Z,12.15
2023-04-18T17:02:19.417Z,12.75
2023-04-18T17:04:47.560Z,12.18
2023-04-18T17:07:14.511Z,10.90
2023-04-18T17:09:42.114Z,10.70
2023-04-18T17:12:09.116Z,9.38
2023-04-18T17:14:37.184Z,10.68
2023-04-18T17:17:04.262Z,9.77
2023-04-18T17:19:31.428Z,11.18
2023-04-18T17:21:58.346Z,12.02
2023-04-18T17:24:25.442Z,12.35
2023-04-18T17:26:52.403Z,11.95
2023-04-18T17:29:19.456Z,11.80
2023-04-18T17:31:46.400Z,9.52
2023-04-18T17:34:13.452Z,15.80
2023-04-18T17:36:40.523Z,12.57
2023-04-18T17:39:07.742Z,12.52
2023-04-18T17:41:38.590Z,14.02
2023-04-18T17:44:08.218Z,17.23
2023-04-18T17:46:35.401Z,15.40
2023-04-18T17:49:02.574Z,13.80
2023-04-18T17:51:29.675Z,12.82
2023-04-18T17:53:56.706Z,13.85
2023-04-18T17:56:23.810Z,12.35
2023-04-18T17:58:51.532Z,14.57
2023-04-18T18:01:20.920Z,12.63
2023-04-18T18:03:48.842Z,12.02
2023-04-18T18:06:16.461Z,13.27
2023-04-18T18:08:43.690Z,12.77
2023-04-18T18:11:11.053Z,14.57
2023-04-18T18:13:41.089Z,13.13
2023-04-18T18:16:09.012Z,13.50
2023-04-18T18:18:36.872Z,14.50
2023-04-18T18:21:04.058Z,13.63
2023-04-18T18:23:31.147Z,16.45
2023-04-18T18:25:58.194Z,17.08
2023-04-18T18:28:25.217Z,14.73
2023-04-18T18:30:52.277Z,14.48
2023-04-18T18:33:22.164Z,16.23
2023-04-18T18:35:50.655Z,13.43
2023-04-18T18:38:17.781Z,18.25
2023-04-18T18:40:44.979Z,13.70
2023-04-18T18:43:12.548Z,14.82
2023-04-18T18:45:39.584Z,18.00
2023-04-18T18:48:10.387Z,18.35
2023-04-18T18:50:37.495Z,24.42
2023-04-18T18:53:06.299Z,21.70
2023-04-18T18:55:33.318Z,15.57
2023-04-18T19:40:34.512Z,20.58
2023-04-18T19:43:01.609Z,19.90
2023-04-18T19:45:30.025Z,20.27
2023-04-18T19:47:56.972Z,19.83
2023-04-18T19:50:24.018Z,19.15
2023-04-18T19:52:51.310Z,18.88
2023-04-18T19:55:18.318Z,18.48
2023-04-18T19:57:45.933Z,21.00
2023-04-18T20:00:13.567Z,23.08
2023-04-18T20:02:42.648Z,22.08
2023-04-18T20:05:10.261Z,21.08
2023-04-18T20:07:37.456Z,18.35
2023-04-18T20:10:05.224Z,18.75
2023-04-18T20:12:32.391Z,18.63
2023-04-18T20:14:59.425Z,18.35
2023-04-18T20:17:26.521Z,19.90
2023-04-18T20:19:57.059Z,21.75
2023-04-18T20:22:27.422Z,17.35
2023-04-18T20:24:57.186Z,19.42
2023-04-18T20:27:24.398Z,19.65
2023-04-18T20:29:51.736Z,20.38
2023-04-18T20:32:18.715Z,18.92
2023-04-18T20:34:46.738Z,21.58
2023-04-18T20:37:18.667Z,21.38
2023-04-18T20:39:46.444Z,18.38
2023-04-18T20:42:14.687Z,20.73
2023-04-18T20:44:46.886Z,19.48
2023-04-18T20:47:15.830Z,19.15
2023-04-18T20:49:43.237Z,17.70
2023-04-18T20:52:10.327Z,19.05
2023-04-18T20:54:37.338Z,16.67
2023-04-18T20:57:33.418Z,19.08
2023-04-18T21:00:00.474Z,21.17
2023-04-18T21:02:27.637Z,16.10
2023-04-18T21:04:54.784Z,17.50
2023-04-18T21:07:21.878Z,20.40
2023-04-18T21:09:48.814Z,23.25
2023-04-18T21:12:16.127Z,21.30
2023-04-18T21:14:43.094Z,22.20
2023-04-18T21:17:10.557Z,22.23
2023-04-18T21:19:37.711Z,19.55
2023-04-18T21:22:04.853Z,19.58
2023-04-18T21:24:32.040Z,21.15
2023-04-18T21:26:59.182Z,21.05
2023-04-18T21:29:26.266Z,20.88
2023-04-18T21:31:53.495Z,19.15
2023-04-18T21:34:20.650Z,25.17
2023-04-18T21:36:47.649Z,20.75
2023-04-18T21:39:14.769Z,21.77
2023-04-18T21:41:41.775Z,18.42
2023-04-18T21:44:08.770Z,19.70
2023-04-18T21:46:35.921Z,23.25
2023-04-18T21:49:03.262Z,22.33
2023-04-18T21:51:31.868Z,18.73
2023-04-18T21:53:59.947Z,20.35
2023-04-18T21:56:27.092Z,20.65
2023-04-18T21:58:54.067Z,19.27
2023-04-18T22:01:21.228Z,20.42
2023-04-18T22:03:48.334Z,17.83
2023-04-18T22:06:16.513Z,21.02
2023-04-18T22:08:43.681Z,18.55
2023-04-18T22:11:11.674Z,21.92
2023-04-18T22:13:38.915Z,19.77
2023-04-18T22:16:08.380Z,17.23
2023-04-18T22:18:36.512Z,21.30
2023-04-18T22:21:04.951Z,16.60
2023-04-18T22:23:32.075Z,20.58
2023-04-18T22:25:59.025Z,17.52
2023-04-18T22:28:27.995Z,20.40
2023-04-18T22:30:55.023Z,18.52
2023-04-18T22:33:22.013Z,18.27
2023-04-18T22:35:49.015Z,18.80
2023-04-18T22:38:16.359Z,17.92
2023-04-18T22:40:43.272Z,20.27
2023-04-18T22:43:10.256Z,21.13
2023-04-18T22:45:37.188Z,16.67
2023-04-18T22:48:04.572Z,19.80
2023-04-18T22:50:31.501Z,18.75
2023-04-18T22:52:58.469Z,17.92
2023-04-18T22:55:25.445Z,16.08
2023-04-18T22:57:52.451Z,18.23
2023-04-18T23:00:19.707Z,18.73
2023-04-18T23:02:46.957Z,19.13
2023-04-18T23:05:15.532Z,19.33
2023-04-18T23:07:42.478Z,17.90
2023-04-18T23:10:09.974Z,20.20
2023-04-18T23:12:36.965Z,19.35
2023-04-18T23:15:04.454Z,19.00
2023-04-18T23:17:31.633Z,17.63
2023-04-18T23:19:58.578Z,18.98
2023-04-18T23:22:25.715Z,21.35
2023-04-18T23:24:52.703Z,19.60
2023-04-18T23:27:19.863Z,16.60
2023-04-18T23:29:50.277Z,19.58
2023-04-18T23:32:17.221Z,17.85
2023-04-18T23:34:45.633Z,19.92
2023-04-18T23:37:12.712Z,16.02
2023-04-18T23:39:39.598Z,17.08
2023-04-18T23:42:06.564Z,16.25
2023-04-18T23:44:33.604Z,18.13
2023-04-18T23:47:00.521Z,16.20
2023-04-18T23:49:28.432Z,17.02
2023-04-18T23:51:55.337Z,15.32
2023-04-18T23:54:22.259Z,19.48
2023-04-18T23:56:49.233Z,18.23
2023-04-18T23:59:16.138Z,16.40
